sensor_id;sensor_type;location;lat;lon;timestamp;temperature;humidity
2407;DHT22;37709;53.480;9.688;2022-08-01T00:00:48;17.50;99.90
2407;DHT22;37709;53.480;9.688;2022-08-01T00:03:16;17.60;99.90
2407;DHT22;37709;53.480;9.688;2022-08-01T00:05:43;17.60;99.90
2407;DHT22;37709;53.480;9.688;2022-08-01T00:08:12;17.60;99.90
2407;DHT22;37709;53.480;9.688;2022-08-01T00:10:40;17.60;99.90
2407;DHT22;37709;53.480;9.688;2022-08-01T00:13:07;17.60;99.90
2407;DHT22;37709;53.480;9.688;2022-08-01T00:15:36;17.60;99.90
2407;DHT22;37709;53.480;9.688;2022-08-01T00:18:04;17.60;99.90
2407;DHT22;37709;53.480;9.688;2022-08-01T00:20:31;17.60;99.90
2407;DHT22;37709;53.480;9.688;2022-08-01T00:23:02;17.60;99.90
2407;DHT22;37709;53.480;9.688;2022-08-01T00:25:30;17.60;99.90
2407;DHT22;37709;53.480;9.688;2022-08-01T00:28:01;17.60;99.90
2407;DHT22;37709;53.480;9.688;2022-08-01T00:30:30;17.50;99.90
2407;DHT22;37709;53.480;9.688;2022-08-01T00:32:58;17.60;99.90
2407;DHT22;37709;53.480;9.688;2022-08-01T00:35:26;17.50;99.90
2407;DHT22;37709;53.480;9.688;2022-08-01T00:37:53;17.60;99.90
2407;DHT22;37709;53.480;9.688;2022-08-01T00:40:21;17.60;99.90
2407;DHT22;37709;53.480;9.688;2022-08-01T00:42:48;17.50;99.90
2407;DHT22;37709;53.480;9.688;2022-08-01T00:45:15;17.50;99.90
2407;DHT22;37709;53.480;9.688;2022-08-01T00:47:43;17.50;99.90
2407;DHT22;37709;53.480;9.688;2022-08-01T00:50:11;17.50;99.90
2407;DHT22;37709;53.480;9.688;2022-08-01T00:52:40;17.50;99.90
2407;DHT22;37709;53.480;9.688;2022-08-01T00:55:09;17.50;99.90
2407;DHT22;37709;53.480;9.688;2022-08-01T00:57:41;17.50;99.90
2407;DHT22;37709;53.480;9.688;2022-08-01T01:00:29;17.50;99.90
2407;DHT22;37709;53.480;9.688;2022-08-01T01:02:58;17.50;99.90
2407;DHT22;37709;53.480;9.688;2022-08-01T01:05:26;17.50;99.90
2407;DHT22;37709;53.480;9.688;2022-08-01T01:07:59;17.50;99.90
2407;DHT22;37709;53.480;9.688;2022-08-01T01:10:36;17.50;99.90
2407;DHT22;37709;53.480;9.688;2022-08-01T01:13:16;17.40;99.90
2407;DHT22;37709;53.480;9.688;2022-08-01T01:16:09;17.50;99.90
2407;DHT22;37709;53.480;9.688;2022-08-01T01:19:00;17.40;99.90
2407;DHT22;37709;53.480;9.688;2022-08-01T01:21:39;17.40;99.90
2407;DHT22;37709;53.480;9.688;2022-08-01T01:24:37;17.40;99.90
2407;DHT22;37709;53.480;9.688;2022-08-01T01:27:18;17.40;99.90
2407;DHT22;37709;53.480;9.688;2022-08-01T01:29:51;17.30;99.90
2407;DHT22;37709;53.480;9.688;2022-08-01T01:32:33;17.30;99.90
2407;DHT22;37709;53.480;9.688;2022-08-01T01:35:06;17.30;99.90
2407;DHT22;37709;53.480;9.688;2022-08-01T01:37:36;17.20;99.90
2407;DHT22;37709;53.480;9.688;2022-08-01T01:40:07;17.30;99.90
2407;DHT22;37709;53.480;9.688;2022-08-01T01:42:37;17.20;99.90
2407;DHT22;37709;53.480;9.688;2022-08-01T01:45:06;17.20;99.90
2407;DHT22;37709;53.480;9.688;2022-08-01T01:47:36;17.20;99.90
2407;DHT22;37709;53.480;9.688;2022-08-01T01:50:05;17.20;99.90
2407;DHT22;37709;53.480;9.688;2022-08-01T01:52:34;17.20;99.90
2407;DHT22;37709;53.480;9.688;2022-08-01T01:55:05;17.20;99.90
2407;DHT22;37709;53.480;9.688;2022-08-01T01:57:37;17.20;99.90
2407;DHT22;37709;53.480;9.688;2022-08-01T02:00:07;17.20;99.90
2407;DHT22;37709;53.480;9.688;2022-08-01T02:02:39;17.20;99.90
2407;DHT22;37709;53.480;9.688;2022-08-01T02:05:10;17.20;99.90
2407;DHT22;37709;53.480;9.688;2022-08-01T02:07:39;17.20;99.90
2407;DHT22;37709;53.480;9.688;2022-08-01T02:10:08;17.20;99.90
2407;DHT22;37709;53.480;9.688;2022-08-01T02:12:39;17.10;99.90
2407;DHT22;37709;53.480;9.688;2022-08-01T02:15:09;17.10;99.90
2407;DHT22;37709;53.480;9.688;2022-08-01T02:17:41;17.10;99.90
2407;DHT22;37709;53.480;9.688;2022-08-01T02:20:10;17.10;99.90
2407;DHT22;37709;53.480;9.688;2022-08-01T02:22:55;17.10;99.90
2407;DHT22;37709;53.480;9.688;2022-08-01T02:25:26;17.10;99.90
2407;DHT22;37709;53.480;9.688;2022-08-01T02:28:03;17.10;99.90
2407;DHT22;37709;53.480;9.688;2022-08-01T02:30:37;17.10;99.90
2407;DHT22;37709;53.480;9.688;2022-08-01T02:33:11;17.10;99.90
2407;DHT22;37709;53.480;9.688;2022-08-01T02:35:46;17.10;99.90
2407;DHT22;37709;53.480;9.688;2022-08-01T02:38:37;17.10;99.90
2407;DHT22;37709;53.480;9.688;2022-08-01T02:41:12;17.10;99.90
2407;DHT22;37709;53.480;9.688;2022-08-01T02:43:45;17.10;99.90
2407;DHT22;37709;53.480;9.688;2022-08-01T02:46:28;17.10;99.90
2407;DHT22;37709;53.480;9.688;2022-08-01T02:48:58;17.10;99.90
2407;DHT22;37709;53.480;9.688;2022-08-01T02:51:28;17.10;99.90
2407;DHT22;37709;53.480;9.688;2022-08-01T02:53:58;17.10;99.90
2407;DHT22;37709;53.480;9.688;2022-08-01T02:56:27;17.00;99.90
2407;DHT22;37709;53.480;9.688;2022-08-01T02:59:08;17.00;99.90
2407;DHT22;37709;53.480;9.688;2022-08-01T03:01:40;17.00;99.90
2407;DHT22;37709;53.480;9.688;2022-08-01T03:04:10;17.00;99.90
2407;DHT22;37709;53.480;9.688;2022-08-01T03:06:38;17.00;99.90
2407;DHT22;37709;53.480;9.688;2022-08-01T03:09:11;17.00;99.90
2407;DHT22;37709;53.480;9.688;2022-08-01T03:11:44;17.00;99.90
2407;DHT22;37709;53.480;9.688;2022-08-01T03:14:13;17.00;99.90
2407;DHT22;37709;53.480;9.688;2022-08-01T03:16:42;17.00;99.90
2407;DHT22;37709;53.480;9.688;2022-08-01T03:19:12;17.00;99.90
2407;DHT22;37709;53.480;9.688;2022-08-01T03:21:41;17.00;99.90
2407;DHT22;37709;53.480;9.688;2022-08-01T03:24:11;16.90;99.90
2407;DHT22;37709;53.480;9.688;2022-08-01T03:26:41;16.90;99.90
2407;DHT22;37709;53.480;9.688;2022-08-01T03:29:14;16.90;99.90
2407;DHT22;37709;53.480;9.688;2022-08-01T03:31:44;16.90;99.90
2407;DHT22;37709;53.480;9.688;2022-08-01T03:34:14;16.90;99.90
2407;DHT22;37709;53.480;9.688;2022-08-01T03:36:47;16.90;99.90
2407;DHT22;37709;53.480;9.688;2022-08-01T03:39:17;16.90;99.90
2407;DHT22;37709;53.480;9.688;2022-08-01T03:41:53;16.90;99.90
2407;DHT22;37709;53.480;9.688;2022-08-01T03:44:26;16.90;99.90
2407;DHT22;37709;53.480;9.688;2022-08-01T03:47:00;16.90;99.90
2407;DHT22;37709;53.480;9.688;2022-08-01T03:49:31;16.90;99.90
2407;DHT22;37709;53.480;9.688;2022-08-01T03:52:02;16.90;99.90
2407;DHT22;37709;53.480;9.688;2022-08-01T03:54:35;16.90;99.90
2407;DHT22;37709;53.480;9.688;2022-08-01T03:57:03;16.90;99.90
2407;DHT22;37709;53.480;9.688;2022-08-01T03:59:34;16.90;99.90
2407;DHT22;37709;53.480;9.688;2022-08-01T04:02:04;16.90;99.90
2407;DHT22;37709;53.480;9.688;2022-08-01T04:04:34;16.90;99.90
2407;DHT22;37709;53.480;9.688;2022-08-01T04:07:02;16.90;99.90
2407;DHT22;37709;53.480;9.688;2022-08-01T04:09:34;17.00;99.90
2407;DHT22;37709;53.480;9.688;2022-08-01T04:12:02;17.00;99.90
2407;DHT22;37709;53.480;9.688;2022-08-01T04:14:38;17.00;99.90
2407;DHT22;37709;53.480;9.688;2022-08-01T04:17:06;17.00;99.90
2407;DHT22;37709;53.480;9.688;2022-08-01T04:19:34;17.00;99.90
2407;DHT22;37709;53.480;9.688;2022-08-01T04:22:02;17.00;99.90
2407;DHT22;37709;53.480;9.688;2022-08-01T04:24:32;17.00;99.90
2407;DHT22;37709;53.480;9.688;2022-08-01T04:27:02;17.00;99.90
2407;DHT22;37709;53.480;9.688;2022-08-01T04:29:32;17.00;99.90
2407;DHT22;37709;53.480;9.688;2022-08-01T04:32:02;17.00;99.90
2407;DHT22;37709;53.480;9.688;2022-08-01T04:34:31;17.00;99.90
2407;DHT22;37709;53.480;9.688;2022-08-01T04:37:00;17.00;99.90
2407;DHT22;37709;53.480;9.688;2022-08-01T04:39:31;17.00;99.90
2407;DHT22;37709;53.480;9.688;2022-08-01T04:42:17;17.00;99.90
2407;DHT22;37709;53.480;9.688;2022-08-01T04:44:59;17.00;99.90
2407;DHT22;37709;53.480;9.688;2022-08-01T04:47:27;17.00;99.90
2407;DHT22;37709;53.480;9.688;2022-08-01T04:49:57;17.00;99.90
2407;DHT22;37709;53.480;9.688;2022-08-01T04:52:35;17.10;99.90
2407;DHT22;37709;53.480;9.688;2022-08-01T04:55:05;17.10;99.90
2407;DHT22;37709;53.480;9.688;2022-08-01T04:57:38;17.30;99.90
2407;DHT22;37709;53.480;9.688;2022-08-01T05:00:06;17.30;99.90
2407;DHT22;37709;53.480;9.688;2022-08-01T05:02:34;17.30;99.90
2407;DHT22;37709;53.480;9.688;2022-08-01T05:05:02;17.30;99.90
2407;DHT22;37709;53.480;9.688;2022-08-01T05:07:30;17.30;99.90
2407;DHT22;37709;53.480;9.688;2022-08-01T05:10:11;17.40;99.90
2407;DHT22;37709;53.480;9.688;2022-08-01T05:12:38;17.40;99.90
2407;DHT22;37709;53.480;9.688;2022-08-01T05:15:07;17.40;99.90
2407;DHT22;37709;53.480;9.688;2022-08-01T05:17:41;17.40;99.90
2407;DHT22;37709;53.480;9.688;2022-08-01T05:20:13;17.40;99.90
2407;DHT22;37709;53.480;9.688;2022-08-01T05:22:41;17.40;99.90
2407;DHT22;37709;53.480;9.688;2022-08-01T05:25:09;17.40;99.90
2407;DHT22;37709;53.480;9.688;2022-08-01T05:27:39;17.40;99.90
2407;DHT22;37709;53.480;9.688;2022-08-01T05:30:08;17.50;99.90
2407;DHT22;37709;53.480;9.688;2022-08-01T05:32:37;17.50;99.90
2407;DHT22;37709;53.480;9.688;2022-08-01T05:35:05;17.60;99.90
2407;DHT22;37709;53.480;9.688;2022-08-01T05:37:34;17.70;99.90
2407;DHT22;37709;53.480;9.688;2022-08-01T05:40:02;17.70;99.90
2407;DHT22;37709;53.480;9.688;2022-08-01T05:42:30;17.80;99.90
2407;DHT22;37709;53.480;9.688;2022-08-01T05:44:57;17.90;99.90
2407;DHT22;37709;53.480;9.688;2022-08-01T05:47:25;17.90;99.90
2407;DHT22;37709;53.480;9.688;2022-08-01T05:49:52;17.80;99.90
2407;DHT22;37709;53.480;9.688;2022-08-01T05:52:19;17.80;99.90
2407;DHT22;37709;53.480;9.688;2022-08-01T05:54:47;17.80;99.90
2407;DHT22;37709;53.480;9.688;2022-08-01T05:57:14;17.90;99.90
2407;DHT22;37709;53.480;9.688;2022-08-01T05:59:42;17.90;99.90
2407;DHT22;37709;53.480;9.688;2022-08-01T06:02:09;17.90;99.90
2407;DHT22;37709;53.480;9.688;2022-08-01T06:04:37;17.90;99.90
2407;DHT22;37709;53.480;9.688;2022-08-01T06:07:04;17.80;99.90
2407;DHT22;37709;53.480;9.688;2022-08-01T06:09:32;17.80;99.90
2407;DHT22;37709;53.480;9.688;2022-08-01T06:12:00;17.80;99.90
2407;DHT22;37709;53.480;9.688;2022-08-01T06:14:27;17.80;99.90
2407;DHT22;37709;53.480;9.688;2022-08-01T06:16:55;17.70;99.90
2407;DHT22;37709;53.480;9.688;2022-08-01T06:19:22;17.80;99.90
2407;DHT22;37709;53.480;9.688;2022-08-01T06:21:53;17.70;99.90
2407;DHT22;37709;53.480;9.688;2022-08-01T06:24:20;17.60;99.90
2407;DHT22;37709;53.480;9.688;2022-08-01T06:26:50;17.60;99.90
2407;DHT22;37709;53.480;9.688;2022-08-01T06:29:17;17.50;99.90
2407;DHT22;37709;53.480;9.688;2022-08-01T06:31:44;17.40;99.90
2407;DHT22;37709;53.480;9.688;2022-08-01T06:34:13;17.30;99.90
2407;DHT22;37709;53.480;9.688;2022-08-01T06:36:42;17.20;99.90
2407;DHT22;37709;53.480;9.688;2022-08-01T06:39:09;17.10;99.90
2407;DHT22;37709;53.480;9.688;2022-08-01T06:41:37;17.20;99.90
2407;DHT22;37709;53.480;9.688;2022-08-01T06:44:05;17.30;99.90
2407;DHT22;37709;53.480;9.688;2022-08-01T06:46:34;17.40;99.90
2407;DHT22;37709;53.480;9.688;2022-08-01T06:49:02;17.40;99.90
2407;DHT22;37709;53.480;9.688;2022-08-01T06:51:30;17.60;99.90
2407;DHT22;37709;53.480;9.688;2022-08-01T06:53:57;17.80;99.90
2407;DHT22;37709;53.480;9.688;2022-08-01T06:56:25;17.70;99.90
2407;DHT22;37709;53.480;9.688;2022-08-01T06:58:52;17.70;99.90
2407;DHT22;37709;53.480;9.688;2022-08-01T07:01:23;17.70;99.90
2407;DHT22;37709;53.480;9.688;2022-08-01T07:03:50;17.70;99.90
2407;DHT22;37709;53.480;9.688;2022-08-01T07:06:24;17.60;99.90
2407;DHT22;37709;53.480;9.688;2022-08-01T07:08:52;17.60;99.90
2407;DHT22;37709;53.480;9.688;2022-08-01T07:11:21;17.60;99.90
2407;DHT22;37709;53.480;9.688;2022-08-01T07:13:49;17.70;99.90
2407;DHT22;37709;53.480;9.688;2022-08-01T07:16:17;17.90;99.90
2407;DHT22;37709;53.480;9.688;2022-08-01T07:18:45;17.90;99.90
2407;DHT22;37709;53.480;9.688;2022-08-01T07:21:12;18.00;99.90
2407;DHT22;37709;53.480;9.688;2022-08-01T07:24:00;18.10;99.90
2407;DHT22;37709;53.480;9.688;2022-08-01T07:26:28;18.20;99.90
2407;DHT22;37709;53.480;9.688;2022-08-01T07:28:55;18.60;99.90
2407;DHT22;37709;53.480;9.688;2022-08-01T07:31:23;19.00;99.90
2407;DHT22;37709;53.480;9.688;2022-08-01T07:33:55;18.90;99.90
2407;DHT22;37709;53.480;9.688;2022-08-01T07:36:22;19.00;99.90
2407;DHT22;37709;53.480;9.688;2022-08-01T07:38:50;19.00;99.90
2407;DHT22;37709;53.480;9.688;2022-08-01T07:41:18;19.10;99.90
2407;DHT22;37709;53.480;9.688;2022-08-01T07:43:46;19.40;99.90
2407;DHT22;37709;53.480;9.688;2022-08-01T07:46:50;19.80;99.90
2407;DHT22;37709;53.480;9.688;2022-08-01T07:49:18;19.80;99.90
2407;DHT22;37709;53.480;9.688;2022-08-01T07:51:47;19.90;99.90
2407;DHT22;37709;53.480;9.688;2022-08-01T07:54:35;20.00;99.90
2407;DHT22;37709;53.480;9.688;2022-08-01T07:57:03;19.90;99.90
2407;DHT22;37709;53.480;9.688;2022-08-01T07:59:31;19.80;99.90
2407;DHT22;37709;53.480;9.688;2022-08-01T08:02:00;20.00;99.90
2407;DHT22;37709;53.480;9.688;2022-08-01T08:04:28;20.10;99.90
2407;DHT22;37709;53.480;9.688;2022-08-01T08:06:55;20.20;99.90
2407;DHT22;37709;53.480;9.688;2022-08-01T08:09:23;20.40;99.90
2407;DHT22;37709;53.480;9.688;2022-08-01T08:11:50;20.30;99.90
2407;DHT22;37709;53.480;9.688;2022-08-01T08:14:18;20.10;99.90
2407;DHT22;37709;53.480;9.688;2022-08-01T08:16:46;19.90;99.90
2407;DHT22;37709;53.480;9.688;2022-08-01T08:19:14;20.70;99.90
2407;DHT22;37709;53.480;9.688;2022-08-01T08:21:42;21.40;99.90
2407;DHT22;37709;53.480;9.688;2022-08-01T08:24:10;21.40;99.90
2407;DHT22;37709;53.480;9.688;2022-08-01T08:26:57;21.70;99.90
2407;DHT22;37709;53.480;9.688;2022-08-01T08:29:26;22.00;99.90
2407;DHT22;37709;53.480;9.688;2022-08-01T08:31:54;21.70;99.90
2407;DHT22;37709;53.480;9.688;2022-08-01T08:34:24;21.60;99.90
2407;DHT22;37709;53.480;9.688;2022-08-01T08:36:53;21.80;99.90
2407;DHT22;37709;53.480;9.688;2022-08-01T08:39:22;22.00;99.90
2407;DHT22;37709;53.480;9.688;2022-08-01T08:41:50;21.70;99.90
2407;DHT22;37709;53.480;9.688;2022-08-01T08:44:18;23.70;99.90
2407;DHT22;37709;53.480;9.688;2022-08-01T08:46:51;25.00;99.90
2407;DHT22;37709;53.480;9.688;2022-08-01T08:49:22;26.80;99.90
2407;DHT22;37709;53.480;9.688;2022-08-01T08:51:51;27.50;99.00
2407;DHT22;37709;53.480;9.688;2022-08-01T08:54:21;28.60;97.20
2407;DHT22;37709;53.480;9.688;2022-08-01T08:56:59;28.40;96.20
2407;DHT22;37709;53.480;9.688;2022-08-01T08:59:27;27.60;96.60
2407;DHT22;37709;53.480;9.688;2022-08-01T09:01:56;27.60;94.90
2407;DHT22;37709;53.480;9.688;2022-08-01T09:04:26;28.70;94.00
2407;DHT22;37709;53.480;9.688;2022-08-01T09:06:54;29.80;92.80
2407;DHT22;37709;53.480;9.688;2022-08-01T09:09:23;30.50;91.60
2407;DHT22;37709;53.480;9.688;2022-08-01T09:11:51;30.90;91.40
2407;DHT22;37709;53.480;9.688;2022-08-01T09:14:24;31.60;88.30
2407;DHT22;37709;53.480;9.688;2022-08-01T09:19:42;28.70;90.40
2407;DHT22;37709;53.480;9.688;2022-08-01T09:22:15;31.20;86.40
2407;DHT22;37709;53.480;9.688;2022-08-01T09:25:04;30.90;84.60
2407;DHT22;37709;53.480;9.688;2022-08-01T09:27:32;28.80;86.90
2407;DHT22;37709;53.480;9.688;2022-08-01T09:30:13;28.00;89.90
2407;DHT22;37709;53.480;9.688;2022-08-01T09:32:57;30.30;85.30
2407;DHT22;37709;53.480;9.688;2022-08-01T09:35:27;32.00;82.00
2407;DHT22;37709;53.480;9.688;2022-08-01T09:38:14;32.60;77.90
2407;DHT22;37709;53.480;9.688;2022-08-01T09:40:50;32.90;70.80
2407;DHT22;37709;53.480;9.688;2022-08-01T09:43:20;33.70;69.30
2407;DHT22;37709;53.480;9.688;2022-08-01T09:45:47;35.10;65.50
2407;DHT22;37709;53.480;9.688;2022-08-01T09:48:21;35.10;64.50
2407;DHT22;37709;53.480;9.688;2022-08-01T09:50:58;35.10;62.20
2407;DHT22;37709;53.480;9.688;2022-08-01T09:53:44;36.00;59.90
2407;DHT22;37709;53.480;9.688;2022-08-01T09:56:20;36.30;56.80
2407;DHT22;37709;53.480;9.688;2022-08-01T09:58:58;36.30;58.40
2407;DHT22;37709;53.480;9.688;2022-08-01T10:01:41;37.00;56.70
2407;DHT22;37709;53.480;9.688;2022-08-01T10:04:11;37.40;53.50
2407;DHT22;37709;53.480;9.688;2022-08-01T10:06:40;36.00;55.10
2407;DHT22;37709;53.480;9.688;2022-08-01T10:09:12;35.90;53.60
2407;DHT22;37709;53.480;9.688;2022-08-01T10:11:41;36.70;51.90
2407;DHT22;37709;53.480;9.688;2022-08-01T10:14:11;34.20;55.50
2407;DHT22;37709;53.480;9.688;2022-08-01T10:16:45;32.10;61.40
2407;DHT22;37709;53.480;9.688;2022-08-01T10:19:31;35.20;57.70
2407;DHT22;37709;53.480;9.688;2022-08-01T10:22:00;36.00;51.50
2407;DHT22;37709;53.480;9.688;2022-08-01T10:24:29;36.30;53.20
2407;DHT22;37709;53.480;9.688;2022-08-01T10:27:05;36.80;50.10
2407;DHT22;37709;53.480;9.688;2022-08-01T10:29:41;36.20;51.60
2407;DHT22;37709;53.480;9.688;2022-08-01T10:32:26;33.80;53.50
2407;DHT22;37709;53.480;9.688;2022-08-01T10:34:56;34.90;51.90
2407;DHT22;37709;53.480;9.688;2022-08-01T10:37:24;36.00;50.70
2407;DHT22;37709;53.480;9.688;2022-08-01T10:39:54;36.70;49.20
2407;DHT22;37709;53.480;9.688;2022-08-01T10:42:45;37.70;47.50
2407;DHT22;37709;53.480;9.688;2022-08-01T10:45:15;38.70;46.40
2407;DHT22;37709;53.480;9.688;2022-08-01T10:47:51;38.70;44.80
2407;DHT22;37709;53.480;9.688;2022-08-01T10:50:29;38.30;43.80
2407;DHT22;37709;53.480;9.688;2022-08-01T10:58:28;37.70;43.10
2407;DHT22;37709;53.480;9.688;2022-08-01T11:01:23;37.60;43.20
2407;DHT22;37709;53.480;9.688;2022-08-01T11:12:06;38.20;42.10
2407;DHT22;37709;53.480;9.688;2022-08-01T11:20:10;38.80;40.40
2407;DHT22;37709;53.480;9.688;2022-08-01T11:28:31;39.20;38.50
2407;DHT22;37709;53.480;9.688;2022-08-01T11:36:16;38.60;39.40
2407;DHT22;37709;53.480;9.688;2022-08-01T11:38:45;38.60;39.80
2407;DHT22;37709;53.480;9.688;2022-08-01T11:41:23;38.60;39.00
2407;DHT22;37709;53.480;9.688;2022-08-01T11:44:25;38.30;39.80
2407;DHT22;37709;53.480;9.688;2022-08-01T11:47:05;37.40;40.50
2407;DHT22;37709;53.480;9.688;2022-08-01T11:54:49;37.40;39.30
2407;DHT22;37709;53.480;9.688;2022-08-01T11:57:21;37.40;40.30
2407;DHT22;37709;53.480;9.688;2022-08-01T11:59:54;37.90;38.90
2407;DHT22;37709;53.480;9.688;2022-08-01T12:02:38;38.30;40.50
2407;DHT22;37709;53.480;9.688;2022-08-01T12:05:08;38.00;38.90
2407;DHT22;37709;53.480;9.688;2022-08-01T12:07:39;37.80;39.40
2407;DHT22;37709;53.480;9.688;2022-08-01T12:10:11;37.70;40.40
2407;DHT22;37709;53.480;9.688;2022-08-01T12:12:46;37.60;39.50
2407;DHT22;37709;53.480;9.688;2022-08-01T12:15:16;37.60;39.10
2407;DHT22;37709;53.480;9.688;2022-08-01T12:17:47;37.80;40.50
2407;DHT22;37709;53.480;9.688;2022-08-01T12:20:30;37.80;39.00
2407;DHT22;37709;53.480;9.688;2022-08-01T12:23:01;38.30;39.90
2407;DHT22;37709;53.480;9.688;2022-08-01T12:25:29;37.60;40.00
2407;DHT22;37709;53.480;9.688;2022-08-01T12:28:03;38.30;39.70
2407;DHT22;37709;53.480;9.688;2022-08-01T12:30:32;37.70;38.80
2407;DHT22;37709;53.480;9.688;2022-08-01T12:33:04;38.40;38.90
2407;DHT22;37709;53.480;9.688;2022-08-01T12:35:33;38.10;38.50
2407;DHT22;37709;53.480;9.688;2022-08-01T12:38:04;38.00;39.40
2407;DHT22;37709;53.480;9.688;2022-08-01T12:40:34;37.80;39.10
2407;DHT22;37709;53.480;9.688;2022-08-01T12:43:05;37.60;39.20
2407;DHT22;37709;53.480;9.688;2022-08-01T12:45:41;38.30;37.90
2407;DHT22;37709;53.480;9.688;2022-08-01T12:48:24;37.90;38.90
2407;DHT22;37709;53.480;9.688;2022-08-01T12:50:52;37.00;38.80
2407;DHT22;37709;53.480;9.688;2022-08-01T12:53:20;36.90;40.60
2407;DHT22;37709;53.480;9.688;2022-08-01T12:55:54;38.20;37.90
2407;DHT22;37709;53.480;9.688;2022-08-01T12:58:33;38.20;38.10
2407;DHT22;37709;53.480;9.688;2022-08-01T13:01:07;38.00;37.80
2407;DHT22;37709;53.480;9.688;2022-08-01T13:03:35;38.10;38.40
2407;DHT22;37709;53.480;9.688;2022-08-01T13:06:10;37.10;37.70
2407;DHT22;37709;53.480;9.688;2022-08-01T13:08:38;36.90;38.20
2407;DHT22;37709;53.480;9.688;2022-08-01T13:11:08;36.00;41.30
2407;DHT22;37709;53.480;9.688;2022-08-01T13:13:48;36.50;40.30
2407;DHT22;37709;53.480;9.688;2022-08-01T13:16:18;36.80;38.70
2407;DHT22;37709;53.480;9.688;2022-08-01T13:19:05;36.60;38.00
2407;DHT22;37709;53.480;9.688;2022-08-01T13:21:34;35.20;39.70
2407;DHT22;37709;53.480;9.688;2022-08-01T13:24:29;34.70;40.70
2407;DHT22;37709;53.480;9.688;2022-08-01T13:26:59;34.30;41.00
2407;DHT22;37709;53.480;9.688;2022-08-01T13:29:36;34.10;41.40
2407;DHT22;37709;53.480;9.688;2022-08-01T13:32:13;34.80;41.70
2407;DHT22;37709;53.480;9.688;2022-08-01T13:35:03;35.40;40.70
2407;DHT22;37709;53.480;9.688;2022-08-01T13:37:31;35.40;40.40
2407;DHT22;37709;53.480;9.688;2022-08-01T13:40:01;34.70;40.40
2407;DHT22;37709;53.480;9.688;2022-08-01T13:42:29;34.20;40.20
2407;DHT22;37709;53.480;9.688;2022-08-01T13:44:57;34.10;40.40
2407;DHT22;37709;53.480;9.688;2022-08-01T13:47:25;33.10;41.20
2407;DHT22;37709;53.480;9.688;2022-08-01T13:49:59;33.50;41.90
2407;DHT22;37709;53.480;9.688;2022-08-01T13:52:31;33.60;41.00
2407;DHT22;37709;53.480;9.688;2022-08-01T13:54:59;33.80;41.50
2407;DHT22;37709;53.480;9.688;2022-08-01T13:57:27;34.10;43.30
2407;DHT22;37709;53.480;9.688;2022-08-01T14:00:06;34.50;40.90
2407;DHT22;37709;53.480;9.688;2022-08-01T14:02:38;34.80;40.90
2407;DHT22;37709;53.480;9.688;2022-08-01T14:05:05;34.50;41.10
2407;DHT22;37709;53.480;9.688;2022-08-01T14:07:33;34.40;42.30
2407;DHT22;37709;53.480;9.688;2022-08-01T14:10:00;34.50;41.90
2407;DHT22;37709;53.480;9.688;2022-08-01T14:12:49;34.40;41.30
2407;DHT22;37709;53.480;9.688;2022-08-01T14:15:17;32.70;42.40
2407;DHT22;37709;53.480;9.688;2022-08-01T14:18:06;33.10;43.70
2407;DHT22;37709;53.480;9.688;2022-08-01T14:20:37;32.70;43.90
2407;DHT22;37709;53.480;9.688;2022-08-01T14:23:05;33.30;43.70
2407;DHT22;37709;53.480;9.688;2022-08-01T14:25:37;32.70;43.20
2407;DHT22;37709;53.480;9.688;2022-08-01T14:28:25;32.80;43.60
2407;DHT22;37709;53.480;9.688;2022-08-01T14:30:54;32.50;43.10
2407;DHT22;37709;53.480;9.688;2022-08-01T14:33:22;32.30;43.50
2407;DHT22;37709;53.480;9.688;2022-08-01T14:35:50;32.30;44.50
2407;DHT22;37709;53.480;9.688;2022-08-01T14:38:38;31.70;43.90
2407;DHT22;37709;53.480;9.688;2022-08-01T14:41:06;31.40;45.30
2407;DHT22;37709;53.480;9.688;2022-08-01T14:43:33;30.80;45.20
2407;DHT22;37709;53.480;9.688;2022-08-01T14:46:01;30.40;45.60
2407;DHT22;37709;53.480;9.688;2022-08-01T14:48:30;30.00;46.20
2407;DHT22;37709;53.480;9.688;2022-08-01T14:50:58;29.70;47.20
2407;DHT22;37709;53.480;9.688;2022-08-01T14:53:26;29.20;47.80
2407;DHT22;37709;53.480;9.688;2022-08-01T14:55:53;29.20;46.70
2407;DHT22;37709;53.480;9.688;2022-08-01T14:58:20;28.90;47.20
2407;DHT22;37709;53.480;9.688;2022-08-01T15:00:49;28.90;48.30
2407;DHT22;37709;53.480;9.688;2022-08-01T15:03:22;28.20;48.50
2407;DHT22;37709;53.480;9.688;2022-08-01T15:05:50;27.20;50.00
2407;DHT22;37709;53.480;9.688;2022-08-01T15:08:17;26.70;50.80
2407;DHT22;37709;53.480;9.688;2022-08-01T15:10:45;26.10;51.30
2407;DHT22;37709;53.480;9.688;2022-08-01T15:13:12;25.60;52.30
2407;DHT22;37709;53.480;9.688;2022-08-01T15:15:39;25.60;52.60
2407;DHT22;37709;53.480;9.688;2022-08-01T15:18:07;25.70;53.80
2407;DHT22;37709;53.480;9.688;2022-08-01T15:20:34;25.50;52.40
2407;DHT22;37709;53.480;9.688;2022-08-01T15:23:02;25.20;52.00
2407;DHT22;37709;53.480;9.688;2022-08-01T15:25:29;25.20;53.10
2407;DHT22;37709;53.480;9.688;2022-08-01T15:28:11;25.20;52.60
2407;DHT22;37709;53.480;9.688;2022-08-01T15:30:38;25.00;53.40
2407;DHT22;37709;53.480;9.688;2022-08-01T15:33:07;25.10;53.00
2407;DHT22;37709;53.480;9.688;2022-08-01T15:35:35;25.10;52.50
2407;DHT22;37709;53.480;9.688;2022-08-01T15:38:02;24.90;52.30
2407;DHT22;37709;53.480;9.688;2022-08-01T15:40:30;25.10;52.60
2407;DHT22;37709;53.480;9.688;2022-08-01T15:43:01;25.00;53.20
2407;DHT22;37709;53.480;9.688;2022-08-01T15:45:29;24.60;52.00
2407;DHT22;37709;53.480;9.688;2022-08-01T15:48:15;24.50;52.70
2407;DHT22;37709;53.480;9.688;2022-08-01T15:50:43;24.60;53.10
2407;DHT22;37709;53.480;9.688;2022-08-01T15:53:10;24.80;52.50
2407;DHT22;37709;53.480;9.688;2022-08-01T15:55:38;25.00;52.20
2407;DHT22;37709;53.480;9.688;2022-08-01T15:58:06;24.60;52.30
2407;DHT22;37709;53.480;9.688;2022-08-01T16:00:34;24.40;53.90
2407;DHT22;37709;53.480;9.688;2022-08-01T16:03:07;24.30;53.80
2407;DHT22;37709;53.480;9.688;2022-08-01T16:05:37;24.40;54.20
2407;DHT22;37709;53.480;9.688;2022-08-01T16:08:11;24.50;54.70
2407;DHT22;37709;53.480;9.688;2022-08-01T16:10:39;24.90;54.60
2407;DHT22;37709;53.480;9.688;2022-08-01T16:13:07;24.70;54.80
2407;DHT22;37709;53.480;9.688;2022-08-01T16:15:36;24.50;55.70
2407;DHT22;37709;53.480;9.688;2022-08-01T16:18:05;24.30;56.50
2407;DHT22;37709;53.480;9.688;2022-08-01T16:20:34;24.30;56.20
2407;DHT22;37709;53.480;9.688;2022-08-01T16:23:01;24.80;55.60
2407;DHT22;37709;53.480;9.688;2022-08-01T16:25:30;24.60;54.60
2407;DHT22;37709;53.480;9.688;2022-08-01T16:27:57;24.30;55.20
2407;DHT22;37709;53.480;9.688;2022-08-01T16:30:25;24.30;55.70
2407;DHT22;37709;53.480;9.688;2022-08-01T16:32:53;24.20;55.60
2407;DHT22;37709;53.480;9.688;2022-08-01T16:35:32;24.10;55.70
2407;DHT22;37709;53.480;9.688;2022-08-01T16:38:04;24.00;55.80
2407;DHT22;37709;53.480;9.688;2022-08-01T16:40:32;23.50;56.80
2407;DHT22;37709;53.480;9.688;2022-08-01T16:43:14;23.00;57.70
2407;DHT22;37709;53.480;9.688;2022-08-01T16:45:42;22.60;58.50
2407;DHT22;37709;53.480;9.688;2022-08-01T16:48:11;22.40;59.40
2407;DHT22;37709;53.480;9.688;2022-08-01T16:50:41;22.50;59.90